Boyd Deep Canyon Reserve, California Weather observations

Data are for 10 minute period ending at time listed.
 Day   Time   Solar   Ave.   Ave.  Ave.  Vector  Max.   Baro.   Total    
  of    of     Rad.   Air    Rel.  Wind   Wind   Wind  Press.  Precip.   
Year   Day            Temp.  Hum.  Speed  Dir.   Gust                    
2014   (PST)  Kw/m2    F      %     mph   deg.    mph    mb.     in.     
-------------------------------------------------------------------------
 354   20:10   0.00   57.6    47    4.1   190     7.2   984.0    0.00 
 354   20:20   0.00   57.3    48    3.4   172     5.5   983.6    0.00 
 354   20:30   0.00   56.8    49    2.1    37     3.5   984.1    0.00 
 354   20:40   0.00   55.2    53    1.3    52     4.3   984.8    0.00 
 354   20:50   0.00   54.7    54    1.8    54     4.1   985.0    0.00 
 354   21:00   0.00   54.6    54    1.6    96     3.0   985.2    0.00 
 354   21:10   0.00   54.4    55    1.4   230     3.2   985.0    0.00 
 354   21:20   0.00   54.2    55    3.0   187     5.0   985.1    0.00 
 354   21:30   0.00   54.4    55    2.9   188     4.7   985.2    0.00 
 354   21:40   0.00   54.1    56    1.7    52     3.7   985.1    0.00 
 354   21:50   0.00   53.7    57    0.0     0     0.0   985.0    0.00 
 354   22:00   0.00   53.5    57    1.3   213     3.7   984.8    0.00 
 354   22:10   0.00   53.5    57    1.5   105     3.3   984.7    0.00 
 354   22:20   0.00   53.3    58    0.7   254     2.2   984.6    0.00 
 354   22:30   0.00   53.5    57    2.7   198     5.2   984.6    0.00 
 354   22:40   0.00   53.9    56    3.2   186     4.7   984.5    0.00 
 354   22:50   0.00   54.3    55    1.4   176     2.6   984.6    0.00 
 354   23:00   0.00   53.7    57    2.1   207     4.7   984.6    0.00 
 354   23:10   0.00   53.2    58    0.6   101     2.3   984.6    0.00 
 354   23:20   0.00   52.8    59    1.2   212     2.3   984.8    0.00 
 354   23:30   0.00   53.9    56    4.0   182     5.7   984.7    0.00 
 354   23:40   0.00   54.3    55    3.1   200     4.5   984.4    0.00 
 354   23:50   0.00   53.9    56    2.6    15     4.6   984.2    0.00 
 355    0:00   0.00   52.8    59    4.3    44     6.6   984.2    0.00 
 355    0:10   0.00   52.9    61    2.3    82     5.0   984.2    0.00 
 355    0:20   0.00   52.7    61    1.4   209     3.4   984.3    0.00 
 355    0:30   0.00   52.0    62    2.8   220     4.0   984.0    0.00 
 355    0:40   0.00   51.9    62    0.5   100     1.8   984.0    0.00 
 355    0:50   0.00   51.4    63    1.2   186     3.1   984.2    0.00 
 355    1:00   0.00   51.3    63    2.8   220     4.2   984.3    0.00 
 355    1:10   0.00   51.3    63    0.7   109     1.6   984.4    0.00 
 355    1:20   0.00   50.9    64    0.8   206     3.1   984.5    0.00 
 355    1:30   0.00   50.8    64    1.9   212     4.1   984.3    0.00 
 355    1:40   0.00   51.4    62    0.7   296     2.3   984.3    0.00 
 355    1:50   0.00   51.8    61    0.3   209     1.8   984.3    0.00 
 355    2:00   0.00   51.7    61    0.8   240     2.6   984.3    0.00 
 355    2:10   0.00   52.2    59    0.5   122     2.3   984.3    0.00 
 355    2:20   0.00   52.9    58    1.5   173     3.6   984.2    0.00 
 355    2:30   0.00   54.1    54    3.7   187     7.2   984.0    0.00 
 355    2:40   0.00   55.9    50    4.0   182     8.1   984.0    0.00 
 355    2:50   0.00   55.9    50    4.3   167     6.5   984.1    0.00 
 355    3:00   0.00   56.6    49    6.9   177     9.4   984.0    0.00 
 355    3:10   0.00   56.9    48    6.3   187     9.0   984.1    0.00 
 355    3:20   0.00   56.9    48    7.1   196     9.9   984.0    0.00 
 355    3:30   0.00   57.2    47    7.0   200    11.3   984.0    0.00 
 355    3:40   0.00   57.0    48    6.2   203     9.2   983.9    0.00 
 355    3:50   0.00   57.2    47    6.3   202     9.5   983.9    0.00 
 355    4:00   0.00   57.4    47    5.9   205    10.5   983.6    0.00 
 355    4:10   0.00   57.9    46    4.0   188     9.9   983.4    0.00 
 355    4:20   0.00   58.0    46    4.2   194     7.1   983.3    0.00 
 355    4:30   0.00   57.0    48    3.9   198     6.4   983.1    0.00 
 355    4:40   0.00   55.5    52    0.7    22     2.0   983.2    0.00 
 355    4:50   0.00   53.7    56    2.1    28     5.6   983.3    0.00 
 355    5:00   0.00   52.1    62    2.9    68     5.8   983.2    0.00 
 355    5:10   0.00   52.0    63    0.7    59     1.8   983.1    0.00 
 355    5:20   0.00   51.3    64    2.0   220     3.4   983.2    0.00 
 355    5:30   0.00   50.7    65    2.2   207     3.4   983.2    0.00 
 355    5:40   0.00   50.1    66    1.8   216     2.4   983.3    0.00 
 355    5:50   0.00   51.0    64    2.5   205     3.1   983.6    0.00 
 355    6:00   0.00   50.5    65    1.8   221     3.4   983.7    0.00 
 355    6:10   0.00   50.4    65    1.7    89     2.5   983.7    0.00 
 355    6:20   0.00   50.1    66    0.5   331     1.7   983.9    0.00 
 355    6:30   0.00   50.0    66    2.5   210     5.6   983.8    0.00 
 355    6:40   0.00   51.4    63    4.7   203     6.0   983.5    0.00 
 355    6:50   0.00   51.4    63    1.8   116     4.1   983.6    0.00 
 355    7:00   0.01   52.0    61    1.1   218     2.6   983.7    0.00 
 355    7:10   0.02   51.2    63    0.8   222     2.0   983.8    0.00 
 355    7:20   0.04   51.0    64    1.6   215     2.9   983.8    0.00 
 355    7:30   0.05   51.9    62    0.5   188     1.4   984.0    0.00 
 355    7:40   0.06   51.6    63    2.0   216     4.5   984.1    0.00 
 355    7:50   0.08   52.5    62    1.1   192     2.8   984.2    0.00 
 355    8:00   0.09   53.3    60    1.5   188     2.6   984.5    0.00 
 355    8:10   0.12   54.0    60    1.4   207     2.4   984.8    0.00 
 355    8:20   0.15   55.6    56    0.1   200     0.7   985.2    0.00 
 355    8:30   0.11   55.4    57    2.6   192     3.4   985.1    0.00 
 355    8:40   0.16   55.5    57    2.2   200     3.4   985.2    0.00 
 355    8:50   0.18   57.1    53    1.4    76     3.0   985.5    0.00 
 355    9:00   0.21   58.5    51    0.2   188     1.6   985.6    0.00 
 355    9:10   0.32   60.0    47    0.7   185     1.4   985.5    0.00 
 355    9:20   0.34   60.9    45    0.8   242     2.0   985.4    0.00 
 355    9:30   0.35   62.4    42    0.5   107     1.7   985.4    0.00 
 355    9:40   0.37   62.0    42    1.3   195     2.6   985.3    0.00 
 355    9:50   0.37   63.0    41    0.7   339     4.1   985.2    0.00 
 355   10:00   0.44   62.5    42    3.8     1     7.2   985.1    0.00 
 355   10:10   0.45   60.7    51    5.8   354     8.3   985.1    0.00 
 355   10:20   0.42   60.3    52    4.3     3     6.8   985.1    0.00 
 355   10:30   0.42   60.3    53    3.0   357     5.3   985.1    0.00 
 355   10:40   0.38   60.4    50    2.3    24     3.4   985.0    0.00 
 355   10:50   0.33   60.5    50    2.2    28     3.9   984.9    0.00 
 355   11:00   0.34   62.0    47    1.7    66     4.2   984.7    0.00 
 355   11:10   0.42   61.8    46    1.7    48     3.4   984.6    0.00 
 355   11:20   0.40   62.7    45    1.3    22     2.9   984.4    0.00 
 355   11:30   0.36   63.0    43    1.2   357     3.0   984.3    0.00 
 355   11:40   0.45   64.0    42    1.2   161     2.9   984.1    0.00 
 355   11:50   0.32   64.6    41    1.5   183     3.1   983.9    0.00 
 355   12:00   0.34   64.5    41    2.3   195     3.6   983.6    0.00 
 355   12:10   0.42   65.9    38    0.6   162     2.0   983.3    0.00 
 355   12:20   0.41   65.9    38    2.4    39     4.1   983.2    0.00 
 355   12:30   0.43   66.2    38    2.8     1     5.6   983.0    0.00 
 355   12:40   0.37   65.9    40    6.0   351    10.1   982.9    0.00 
 355   12:50   0.42   64.1    47    8.0     3    10.5   982.8    0.00 
 355   13:00   0.41   64.0    46    6.3   359     8.5   982.7    0.00 
 355   13:10   0.42   64.0    46    5.5   348     7.7   982.5    0.00 
 355   13:20   0.46   64.3    45    5.5   350     8.7   982.3    0.00 
 355   13:30   0.47   64.8    44    4.8     5     8.5   982.2    0.00 
 355   13:40   0.44   65.4    42    3.0   357     6.4   981.9    0.00 
 355   13:50   0.40   65.6    42    4.6     2     8.2   981.8    0.00 
 355   14:00   0.34   65.3    43    5.0   350     7.2   981.9    0.00 
 355   14:10   0.24   65.0    43    3.5   350     6.6   981.9    0.00 
 355   14:20   0.20   65.1    43    2.8   283     5.6   981.8    0.00 
 355   14:30   0.17   65.1    43    5.5     9     8.9   982.0    0.00 
 355   14:40   0.15   64.1    46    6.2   353     8.8   982.4    0.00 
 355   14:50   0.13   63.8    46    4.4     1     6.1   982.5    0.00 
 355   15:00   0.14   63.7    47    4.1     2     5.6   982.6    0.00 
 355   15:10   0.13   64.0    46    2.4     6     4.7   982.6    0.00 
 355   15:20   0.11   64.0    46    1.8    70     3.2   982.5    0.00 
 355   15:30   0.10   63.9    46    1.8    23     4.1   982.5    0.00 
 355   15:40   0.08   63.8    46    2.1   358     3.7   982.6    0.00 
 355   15:50   0.07   63.7    46    3.6   359     5.5   982.8    0.00 
 355   16:00   0.06   63.3    47    3.4   341     4.8   982.9    0.00 
 355   16:10   0.04   63.1    48    1.5   331     4.2   982.9    0.00 
 355   16:20   0.03   62.9    48    1.0   100     1.8   982.8    0.00 
 355   16:30   0.01   62.3    50    0.3    83     0.9   982.8    0.00 
 355   16:40   0.00   61.9    50    0.6   104     1.5   982.9    0.00 
 355   16:50   0.00   61.4    51    0.1   102     1.2   982.8    0.00 
 355   17:00   0.00   60.8    52    2.5    60     3.1   982.6    0.00 
 355   17:10   0.00   60.9    52    1.6    56     2.5   982.4    0.00 
 355   17:20   0.00   60.4    53    0.3    98     1.5   982.4    0.00 
 355   17:30   0.00   59.9    54    1.2   177     3.2   982.3    0.00 
 355   17:40   0.00   60.0    54    2.6   205     3.9   982.3    0.00 
 355   17:50   0.00   59.9    54    0.8   187     1.8   982.4    0.00 
 355   18:00   0.00   59.1    56    0.2   130     1.2   982.4    0.00 
 355   18:10   0.00   59.0    56    0.0     0     0.0   982.6    0.00 
 355   18:20   0.00   58.9    56    0.6   183     1.4   982.5    0.00 
 355   18:30   0.00   58.6    57    1.0   227     2.3   982.4    0.00 
 355   18:40   0.00   58.1    58    0.5    69     1.5   982.5    0.00 
 355   18:50   0.00   58.1    58    0.1   185     1.4   982.7    0.00 
 355   19:00   0.00   58.1    58    2.8   178     4.0   982.8    0.00 
 355   19:10   0.00   58.3    58    1.2   155     2.2   982.8    0.00 
 355   19:20   0.00   57.5    59    0.8   211     2.3   982.8    0.00 
 355   19:30   0.00   57.7    59    0.9   208     2.0   982.8    0.00 
 355   19:40   0.00   57.3    60    0.1   149     1.2   982.8    0.00 
 355   19:50   0.00   57.2    60    1.5   205     2.6   983.0    0.00 
 355   20:00   0.00   57.3    59    4.1   195     6.4   983.2    0.00 

Return to Boyd Deep Canyon Reserve graphs page.


Western Regional Climate Center,wrcc@dri.edu